Time;durP1;ratioP1;P1;durP2;ratioP2;P2;SDS_P1;SDS_P2;PMS_P1;PMS_P2;Temp;Humidity;BMP_temperature;BMP_pressure;BME280_temperature;BME280_humidity;BME280_pressure;Samples;Min_cycle;Max_cycle;Signal;HPM_P1;HPM_P2
2023/01/06 00:01:12;;;;;;;3.37;3.07;;;11.40;99.90;;;;;;5065985;28;20674;-87
2023/01/06 00:03:37;;;;;;;3.47;3.20;;;11.30;99.90;;;;;;5060716;28;20594;-86
2023/01/06 00:06:05;;;;;;;3.13;2.83;;;11.20;99.90;;;;;;5049201;28;20199;-86
2023/01/06 00:08:31;;;;;;;3.40;3.10;;;11.10;99.90;;;;;;5061283;28;20242;-86
2023/01/06 00:10:56;;;;;;;3.27;3.07;;;11.10;99.90;;;;;;5067926;28;20178;-86
2023/01/06 00:13:22;;;;;;;3.67;3.33;;;11.00;99.90;;;;;;5061163;28;20186;-86
2023/01/06 00:15:48;;;;;;;3.97;2.80;;;11.00;99.90;;;;;;5053290;28;20190;-86
2023/01/06 00:18:13;;;;;;;2.90;2.70;;;11.00;99.90;;;;;;5062651;28;20780;-86
2023/01/06 00:20:39;;;;;;;3.23;3.00;;;11.00;99.90;;;;;;5053902;28;20269;-86
2023/01/06 00:23:05;;;;;;;2.97;2.77;;;11.00;99.90;;;;;;5065410;28;20207;-86
2023/01/06 00:25:30;;;;;;;4.90;3.37;;;11.10;99.90;;;;;;5059621;28;20193;-86
2023/01/06 00:27:56;;;;;;;4.30;3.00;;;11.10;99.90;;;;;;5057322;28;20203;-86
2023/01/06 00:30:22;;;;;;;3.43;3.13;;;11.20;99.90;;;;;;5065325;28;20260;-86
2023/01/06 00:32:49;;;;;;;3.67;2.97;;;11.10;99.90;;;;;;5058394;28;20179;-86
2023/01/06 00:35:15;;;;;;;3.27;2.93;;;11.10;99.90;;;;;;5054846;28;20270;-86
2023/01/06 00:37:40;;;;;;;3.60;3.00;;;11.20;99.90;;;;;;5059755;28;20312;-86
2023/01/06 00:40:06;;;;;;;3.70;3.27;;;11.30;99.90;;;;;;5065191;28;20217;-86
2023/01/06 00:42:32;;;;;;;4.23;3.00;;;11.40;99.90;;;;;;5061059;28;20265;-87
2023/01/06 00:44:57;;;;;;;4.43;3.07;;;11.20;99.90;;;;;;5058653;28;20655;-86
2023/01/06 00:47:23;;;;;;;3.10;2.80;;;11.30;99.90;;;;;;5061133;28;20312;-86
2023/01/06 00:49:48;;;;;;;4.97;3.17;;;11.20;99.90;;;;;;5067744;28;20183;-87
2023/01/06 00:52:14;;;;;;;4.97;3.13;;;11.10;99.90;;;;;;5068198;28;20321;-86
2023/01/06 00:54:41;;;;;;;3.50;3.10;;;11.10;99.90;;;;;;5058806;28;20198;-86
2023/01/06 00:57:07;;;;;;;3.10;2.80;;;10.90;99.90;;;;;;5065033;28;20341;-86
2023/01/06 00:59:33;;;;;;;3.47;3.13;;;10.90;99.90;;;;;;5069381;28;20194;-86
2023/01/06 01:01:59;;;;;;;3.57;3.00;;;11.00;99.90;;;;;;5057600;28;20190;-86
2023/01/06 01:04:25;;;;;;;3.77;3.00;;;10.90;99.90;;;;;;5061427;28;20303;-87
2023/01/06 01:06:52;;;;;;;2.67;2.47;;;11.00;99.90;;;;;;5063476;28;20189;-86
2023/01/06 01:09:20;;;;;;;4.00;2.73;;;10.90;99.90;;;;;;5063444;28;20802;-86
2023/01/06 01:14:31;;;;;;;2.70;2.50;;;11.20;99.90;;;;;;5072627;28;20218;-87
2023/01/06 01:16:57;;;;;;;3.47;2.60;;;11.20;99.90;;;;;;5063547;28;20251;-86
2023/01/06 01:19:23;;;;;;;2.77;2.57;;;11.20;99.90;;;;;;5068466;28;20300;-87
2023/01/06 01:21:49;;;;;;;2.97;2.73;;;11.30;99.90;;;;;;5053927;28;20190;-86
2023/01/06 01:24:15;;;;;;;3.27;2.97;;;11.20;99.90;;;;;;5055278;28;20190;-87
2023/01/06 01:26:41;;;;;;;2.97;2.67;;;11.20;99.90;;;;;;5061039;28;20251;-86
2023/01/06 01:29:10;;;;;;;3.10;2.90;;;11.20;99.90;;;;;;5045026;28;20274;-87
2023/01/06 01:31:35;;;;;;;3.17;2.93;;;11.10;99.90;;;;;;5055412;28;20269;-86
2023/01/06 01:34:01;;;;;;;3.53;2.90;;;11.10;99.90;;;;;;5056225;28;20267;-87
2023/01/06 01:36:27;;;;;;;2.77;2.57;;;11.10;99.90;;;;;;5057136;28;20286;-87
2023/01/06 01:38:55;;;;;;;3.27;2.70;;;11.20;99.90;;;;;;5063106;28;20210;-88
2023/01/06 01:41:22;;;;;;;2.90;2.60;;;11.20;99.90;;;;;;5059300;28;20271;-87
2023/01/06 01:44:03;;;;;;;2.67;2.47;;;11.20;99.90;;;;;;5061619;28;20215;-86
2023/01/06 01:46:31;;;;;;;3.00;2.70;;;11.30;99.90;;;;;;5064480;28;20190;-87
2023/01/06 01:49:01;;;;;;;2.83;2.60;;;11.30;99.90;;;;;;5067415;28;20209;-87
2023/01/06 01:51:33;;;;;;;2.93;2.50;;;11.20;99.90;;;;;;5054296;28;20240;-87
2023/01/06 01:54:03;;;;;;;2.87;2.67;;;11.10;99.90;;;;;;5059307;28;20193;-87
2023/01/06 01:56:31;;;;;;;3.90;2.57;;;11.10;99.90;;;;;;5064034;28;20238;-86
2023/01/06 01:59:05;;;;;;;2.53;2.33;;;11.10;99.90;;;;;;5077120;28;20213;-86
2023/01/06 02:01:31;;;;;;;2.47;2.37;;;11.30;99.90;;;;;;5078254;28;20201;-85
2023/01/06 02:03:59;;;;;;;3.00;2.50;;;11.40;99.90;;;;;;5083295;28;20217;-86
2023/01/06 02:06:26;;;;;;;2.77;2.17;;;11.30;99.90;;;;;;5078071;28;20594;-87
2023/01/06 02:09:12;;;;;;;3.00;2.20;;;11.30;99.90;;;;;;5056783;28;20267;-86
2023/01/06 02:11:39;;;;;;;2.73;2.50;;;11.30;99.90;;;;;;5047237;28;20190;-86
2023/01/06 02:14:16;;;;;;;5.60;2.60;;;11.20;99.90;;;;;;5060918;28;20198;-86
2023/01/06 02:17:09;;;;;;;2.70;2.50;;;11.20;99.90;;;;;;5067210;28;20257;-87
2023/01/06 02:20:12;;;;;;;4.43;2.33;;;11.30;99.90;;;;;;5053428;28;20271;-86
2023/01/06 02:23:12;;;;;;;2.70;2.50;;;11.40;99.90;;;;;;5057067;28;20581;-86
2023/01/06 02:25:55;;;;;;;3.27;2.97;;;11.20;99.90;;;;;;5062066;28;20185;-86
2023/01/06 02:28:42;;;;;;;2.70;2.50;;;11.20;99.90;;;;;;5057848;28;20235;-86
2023/01/06 02:31:19;;;;;;;3.20;2.90;;;11.10;99.90;;;;;;5042887;28;20189;-86
2023/01/06 02:33:49;;;;;;;3.00;2.70;;;11.20;99.90;;;;;;5058486;28;20188;-87
2023/01/06 02:37:17;;;;;;;3.53;3.23;;;11.00;99.90;;;;;;5063654;28;20256;-86
2023/01/06 02:40:01;;;;;;;3.00;2.70;;;10.90;99.90;;;;;;4960865;28;20207;-86
2023/01/06 02:43:04;;;;;;;3.30;3.00;;;10.90;99.90;;;;;;4960886;28;20858;-86
2023/01/06 02:45:41;;;;;;;3.70;3.33;;;11.00;99.90;;;;;;5074914;28;20211;-85
2023/01/06 02:48:17;;;;;;;5.43;3.40;;;10.90;99.90;;;;;;5075270;28;20263;-85
2023/01/06 02:50:50;;;;;;;3.63;3.30;;;10.80;99.90;;;;;;5053907;28;20183;-86
2023/01/06 02:53:21;;;;;;;3.43;3.17;;;10.80;99.90;;;;;;5074102;28;20275;-87
2023/01/06 02:55:56;;;;;;;3.40;3.13;;;10.80;99.90;;;;;;5067358;28;20685;-86
2023/01/06 02:58:43;;;;;;;4.00;3.40;;;10.70;99.90;;;;;;5057471;28;20226;-87
2023/01/06 03:01:24;;;;;;;4.80;3.40;;;10.70;99.90;;;;;;5062419;28;20185;-87
2023/01/06 03:03:52;;;;;;;3.87;3.10;;;10.60;99.90;;;;;;5064353;28;20240;-86
2023/01/06 03:06:23;;;;;;;3.60;3.20;;;10.70;99.90;;;;;;5069661;28;20215;-86
2023/01/06 03:08:50;;;;;;;3.60;3.30;;;10.60;99.90;;;;;;5064885;28;20267;-86
2023/01/06 03:11:16;;;;;;;3.60;3.30;;;10.60;99.90;;;;;;5060505;28;20185;-86
2023/01/06 03:13:46;;;;;;;3.40;3.10;;;10.60;99.90;;;;;;5052307;28;20284;-86
2023/01/06 03:16:12;;;;;;;3.50;3.17;;;10.70;99.90;;;;;;5067512;28;20187;-86
2023/01/06 03:18:41;;;;;;;3.80;3.43;;;10.60;99.90;;;;;;5056811;28;20222;-86
2023/01/06 03:21:14;;;;;;;4.20;3.20;;;10.60;99.90;;;;;;5060775;28;20780;-87
2023/01/06 03:23:41;;;;;;;4.20;3.50;;;10.60;99.90;;;;;;5068369;28;20193;-86
2023/01/06 03:26:07;;;;;;;3.40;3.10;;;10.60;99.90;;;;;;5060872;28;20191;-86
2023/01/06 03:28:33;;;;;;;3.30;3.00;;;10.60;99.90;;;;;;5061792;28;20597;-86
2023/01/06 03:31:25;;;;;;;3.57;2.70;;;10.60;99.90;;;;;;5063723;28;20182;-86
2023/01/06 03:34:09;;;;;;;3.07;2.87;;;10.50;99.90;;;;;;5044944;28;20620;-86
2023/01/06 03:37:00;;;;;;;3.37;2.90;;;10.60;99.90;;;;;;5057812;28;20211;-87
2023/01/06 03:39:43;;;;;;;4.23;2.77;;;10.60;99.90;;;;;;5061602;28;20192;-87
2023/01/06 03:45:49;;;;;;;2.83;2.63;;;10.60;99.90;;;;;;5059863;28;20864;-86
2023/01/06 03:48:24;;;;;;;2.70;2.50;;;10.60;99.90;;;;;;5062518;28;20212;-86
2023/01/06 03:51:10;;;;;;;2.70;2.50;;;10.60;99.90;;;;;;5065125;28;20237;-87
2023/01/06 03:54:02;;;;;;;2.73;2.53;;;10.50;99.90;;;;;;5066977;28;20187;-86
2023/01/06 03:56:51;;;;;;;2.90;2.70;;;10.40;99.90;;;;;;5064440;28;20686;-86
2023/01/06 03:59:21;;;;;;;4.00;2.83;;;10.40;99.90;;;;;;5063802;28;20191;-87
2023/01/06 04:01:48;;;;;;;3.03;2.73;;;10.40;99.90;;;;;;5064631;28;20196;-86
2023/01/06 04:04:16;;;;;;;2.80;2.60;;;10.40;99.90;;;;;;5064130;28;20576;-87
2023/01/06 04:06:41;;;;;;;2.83;2.63;;;10.60;99.90;;;;;;5058913;28;20213;-87
2023/01/06 04:09:07;;;;;;;3.37;3.07;;;10.50;99.90;;;;;;5052540;28;20200;-87
2023/01/06 04:14:17;;;;;;;3.33;3.03;;;10.60;99.90;;;;;;5068441;28;20230;-86
2023/01/06 04:16:43;;;;;;;3.43;3.13;;;10.50;99.90;;;;;;5057906;28;20184;-87
2023/01/06 04:19:09;;;;;;;4.37;3.27;;;10.50;99.90;;;;;;5061116;28;20470;-87
2023/01/06 04:21:34;;;;;;;3.87;3.40;;;10.40;99.90;;;;;;5066073;28;20180;-86
2023/01/06 04:24:00;;;;;;;3.77;3.47;;;10.40;99.90;;;;;;5069736;28;20219;-87
2023/01/06 04:26:26;;;;;;;4.07;3.40;;;10.40;99.90;;;;;;5060515;28;20191;-87
2023/01/06 04:28:51;;;;;;;3.73;3.40;;;10.40;99.90;;;;;;5060491;28;20203;-87
2023/01/06 04:31:17;;;;;;;4.17;3.83;;;10.40;99.90;;;;;;5070570;28;20175;-87
2023/01/06 04:33:43;;;;;;;4.13;3.83;;;10.40;99.90;;;;;;5062784;28;20654;-87
2023/01/06 04:36:08;;;;;;;4.80;4.40;;;10.40;99.90;;;;;;5059425;28;20327;-87
2023/01/06 04:38:34;;;;;;;4.80;4.40;;;10.40;99.90;;;;;;5066051;28;20212;-87
2023/01/06 04:41:00;;;;;;;5.10;4.37;;;10.40;99.90;;;;;;5061671;28;20227;-87
2023/01/06 04:43:26;;;;;;;4.63;4.27;;;10.40;99.90;;;;;;5057106;28;20265;-86
2023/01/06 04:45:51;;;;;;;5.00;4.60;;;10.50;99.90;;;;;;5063598;28;20237;-86
2023/01/06 04:48:17;;;;;;;4.83;3.93;;;10.40;99.90;;;;;;5058955;28;20263;-86
2023/01/06 04:50:43;;;;;;;4.60;4.20;;;10.40;99.90;;;;;;5069659;28;20195;-86
2023/01/06 04:53:10;;;;;;;4.53;4.13;;;10.50;99.90;;;;;;5061696;28;20250;-87
2023/01/06 04:55:40;;;;;;;4.33;3.97;;;10.40;99.90;;;;;;5057340;28;20208;-86
2023/01/06 04:58:06;;;;;;;4.70;4.30;;;10.50;99.90;;;;;;5063517;28;20265;-87
2023/01/06 05:00:32;;;;;;;5.27;4.77;;;10.40;99.90;;;;;;5070207;28;20245;-86
2023/01/06 05:02:57;;;;;;;4.60;4.20;;;10.40;99.90;;;;;;5065250;28;20696;-87
2023/01/06 05:05:23;;;;;;;4.70;4.30;;;10.40;99.90;;;;;;5062273;28;20188;-87
2023/01/06 05:07:53;;;;;;;4.53;3.87;;;10.40;99.90;;;;;;5062732;28;20212;-87
2023/01/06 05:10:19;;;;;;;4.73;4.17;;;10.50;99.90;;;;;;5067344;28;20184;-87
2023/01/06 05:12:44;;;;;;;5.77;3.70;;;10.50;99.90;;;;;;5065098;28;20246;-87
2023/01/06 05:15:10;;;;;;;4.80;4.40;;;10.60;99.90;;;;;;5055939;28;20184;-86
2023/01/06 05:17:36;;;;;;;4.60;4.20;;;10.50;99.90;;;;;;5059575;28;20609;-87
2023/01/06 05:20:02;;;;;;;4.97;4.53;;;10.50;99.90;;;;;;5041058;28;20203;-86
2023/01/06 05:22:28;;;;;;;5.20;4.63;;;10.40;99.90;;;;;;5058714;28;20738;-87
2023/01/06 05:24:53;;;;;;;5.00;4.60;;;10.40;99.90;;;;;;5058340;28;20200;-86
2023/01/06 05:27:19;;;;;;;5.97;4.70;;;10.40;99.90;;;;;;5060801;28;20204;-86
2023/01/06 05:29:45;;;;;;;4.97;4.57;;;10.40;99.90;;;;;;5054118;28;20183;-87
2023/01/06 05:32:11;;;;;;;5.07;4.67;;;10.30;99.90;;;;;;5060909;28;20185;-87
2023/01/06 05:34:36;;;;;;;4.50;4.10;;;10.40;99.90;;;;;;5060488;28;20185;-86
2023/01/06 05:37:02;;;;;;;5.23;4.43;;;10.40;99.90;;;;;;5061345;28;20211;-86
2023/01/06 05:39:27;;;;;;;5.70;4.80;;;10.40;99.90;;;;;;5067660;28;20183;-86
2023/01/06 05:41:53;;;;;;;4.67;4.17;;;10.40;99.90;;;;;;5058039;28;20188;-86
2023/01/06 05:44:19;;;;;;;5.60;5.20;;;10.40;99.90;;;;;;5069723;28;20293;-85
2023/01/06 05:46:44;;;;;;;5.20;4.73;;;10.40;99.90;;;;;;5080917;28;20372;-86
2023/01/06 05:49:10;;;;;;;5.40;5.00;;;10.50;99.90;;;;;;5076021;28;20188;-86
2023/01/06 05:51:36;;;;;;;5.80;5.30;;;10.40;99.90;;;;;;5060372;28;20475;-87
2023/01/06 05:54:05;;;;;;;5.63;5.13;;;10.30;99.90;;;;;;5060755;28;20282;-87
2023/01/06 05:56:31;;;;;;;5.53;5.03;;;10.30;99.90;;;;;;5064153;28;20273;-86
2023/01/06 05:58:57;;;;;;;5.60;5.20;;;10.30;99.90;;;;;;5051189;28;20216;-87
2023/01/06 06:01:28;;;;;;;5.90;5.40;;;10.20;99.90;;;;;;5057884;28;20259;-86
2023/01/06 06:03:54;;;;;;;6.07;5.43;;;10.40;99.90;;;;;;5065866;28;20231;-86
2023/01/06 06:06:22;;;;;;;5.77;5.27;;;10.40;99.90;;;;;;5067030;28;20267;-85
2023/01/06 06:08:48;;;;;;;5.27;4.77;;;10.40;99.90;;;;;;5068675;28;20218;-85
2023/01/06 06:11:15;;;;;;;5.63;5.10;;;10.40;99.90;;;;;;5052642;28;20199;-85
2023/01/06 06:13:52;;;;;;;6.10;5.50;;;10.30;99.90;;;;;;5069508;28;20191;-84
2023/01/06 06:16:21;;;;;;;6.13;5.50;;;10.30;99.90;;;;;;5082674;28;20191;-85
2023/01/06 06:18:52;;;;;;;5.83;5.33;;;10.20;99.90;;;;;;5089016;28;20276;-85
2023/01/06 06:21:21;;;;;;;6.00;5.50;;;10.20;99.90;;;;;;5063071;28;20184;-85
2023/01/06 06:23:47;;;;;;;5.80;5.30;;;10.10;99.90;;;;;;5057199;28;20208;-85
2023/01/06 06:26:12;;;;;;;7.20;5.27;;;10.20;99.90;;;;;;5061333;28;20188;-85
2023/01/06 06:28:39;;;;;;;6.07;5.47;;;10.20;99.90;;;;;;5069412;28;20218;-85
2023/01/06 06:31:09;;;;;;;5.60;5.10;;;10.10;99.90;;;;;;5051009;28;20188;-86
2023/01/06 06:33:35;;;;;;;5.73;5.33;;;10.20;99.90;;;;;;5057156;28;20187;-85
2023/01/06 06:36:01;;;;;;;5.80;5.30;;;10.10;99.90;;;;;;5061650;28;20192;-86
2023/01/06 06:38:27;;;;;;;5.63;5.13;;;10.10;99.90;;;;;;5069873;28;20221;-85
2023/01/06 06:40:53;;;;;;;6.60;5.33;;;10.10;99.90;;;;;;5060466;28;20188;-85
2023/01/06 06:43:19;;;;;;;6.07;5.47;;;10.10;99.90;;;;;;5059477;28;20451;-85
2023/01/06 06:45:46;;;;;;;5.90;5.40;;;10.20;99.90;;;;;;5065982;28;20230;-86
2023/01/06 06:48:12;;;;;;;5.50;4.63;;;10.20;99.90;;;;;;5066649;28;20605;-85
2023/01/06 06:50:38;;;;;;;5.67;5.17;;;10.20;99.90;;;;;;5062422;28;20188;-85
2023/01/06 06:53:03;;;;;;;5.93;5.37;;;10.10;99.90;;;;;;5069092;28;20664;-87
2023/01/06 06:55:29;;;;;;;5.77;5.27;;;10.10;99.90;;;;;;5064548;28;20183;-86
2023/01/06 06:57:54;;;;;;;4.87;4.47;;;10.20;99.90;;;;;;5062995;28;20214;-86
2023/01/06 07:00:20;;;;;;;5.53;5.03;;;10.20;99.90;;;;;;5063389;28;20257;-86
2023/01/06 07:02:49;;;;;;;5.23;4.73;;;10.20;99.90;;;;;;5050363;28;20260;-86
2023/01/06 07:05:15;;;;;;;5.43;4.93;;;10.10;99.90;;;;;;5057483;28;20230;-86
2023/01/06 07:07:41;;;;;;;5.77;5.13;;;10.20;99.90;;;;;;5043618;28;20204;-87
2023/01/06 07:10:07;;;;;;;5.17;4.67;;;10.20;99.90;;;;;;5054970;28;20176;-86
2023/01/06 07:12:33;;;;;;;5.47;4.97;;;10.10;99.90;;;;;;5063355;28;20222;-87
2023/01/06 07:14:59;;;;;;;5.53;5.03;;;10.10;99.90;;;;;;5061931;28;20181;-87
2023/01/06 07:17:28;;;;;;;5.07;4.67;;;10.10;99.90;;;;;;5057983;28;20640;-86
2023/01/06 07:19:54;;;;;;;6.90;4.80;;;10.20;99.90;;;;;;5056370;28;20995;-87
2023/01/06 07:22:20;;;;;;;6.30;5.20;;;10.20;99.90;;;;;;5061351;28;20239;-86
2023/01/06 07:24:46;;;;;;;5.70;5.20;;;10.10;99.90;;;;;;5059751;28;20262;-85
2023/01/06 07:27:11;;;;;;;5.17;4.67;;;10.20;99.90;;;;;;5061434;28;20656;-85
2023/01/06 07:29:37;;;;;;;5.73;5.23;;;10.00;99.90;;;;;;5058474;28;20525;-86
2023/01/06 07:32:03;;;;;;;4.80;4.30;;;10.10;99.90;;;;;;5049661;28;20188;-85
2023/01/06 07:34:29;;;;;;;4.60;4.17;;;10.00;99.90;;;;;;5065374;28;20194;-85
2023/01/06 07:36:54;;;;;;;5.33;4.83;;;9.90;99.90;;;;;;5069133;28;20219;-87
2023/01/06 07:39:20;;;;;;;4.50;4.10;;;9.90;99.90;;;;;;5063725;28;20199;-86
2023/01/06 07:41:46;;;;;;;4.10;3.80;;;10.00;99.90;;;;;;5055423;28;20716;-86
2023/01/06 07:44:11;;;;;;;4.23;3.90;;;10.20;99.90;;;;;;5060330;28;20295;-86
2023/01/06 07:46:37;;;;;;;4.07;3.67;;;10.10;99.90;;;;;;5067733;28;20187;-86
2023/01/06 07:49:02;;;;;;;4.23;3.83;;;10.00;99.90;;;;;;5068037;28;20190;-86
2023/01/06 07:51:28;;;;;;;5.73;4.67;;;10.00;99.90;;;;;;5055723;28;20183;-85
2023/01/06 07:53:54;;;;;;;4.60;4.20;;;10.00;99.90;;;;;;5070503;28;20224;-86
2023/01/06 07:56:20;;;;;;;4.10;3.80;;;10.00;99.90;;;;;;5069831;28;20211;-86
2023/01/06 07:58:46;;;;;;;4.90;4.13;;;10.00;99.90;;;;;;5059616;28;20261;-87
2023/01/06 08:01:12;;;;;;;5.20;3.73;;;10.00;99.90;;;;;;5061734;28;20320;-87
2023/01/06 08:03:38;;;;;;;6.27;3.60;;;10.00;99.90;;;;;;5054112;28;21070;-87
2023/01/06 08:06:11;;;;;;;2.80;2.60;;;10.10;99.90;;;;;;5060273;28;20218;-88
2023/01/06 08:08:38;;;;;;;3.50;2.83;;;10.20;99.90;;;;;;5057349;28;20307;-86
2023/01/06 08:11:07;;;;;;;2.73;2.50;;;10.20;99.90;;;;;;5062942;28;20289;-87
2023/01/06 08:13:33;;;;;;;2.63;2.43;;;10.30;99.90;;;;;;5065741;28;20188;-87
2023/01/06 08:16:03;;;;;;;2.57;2.37;;;10.40;99.90;;;;;;5063309;28;20251;-88
2023/01/06 08:18:28;;;;;;;2.83;2.00;;;10.30;99.90;;;;;;5062360;28;20271;-87
2023/01/06 08:21:00;;;;;;;2.67;2.03;;;10.40;99.90;;;;;;5063987;28;20690;-88
2023/01/06 08:23:25;;;;;;;1.97;1.83;;;10.50;99.90;;;;;;5072183;28;20207;-87
2023/01/06 08:26:08;;;;;;;4.83;2.10;;;10.50;99.50;;;;;;5067023;28;20188;-88
2023/01/06 08:28:34;;;;;;;2.40;1.90;;;10.50;99.90;;;;;;5052281;28;20211;-87
2023/01/06 08:31:00;;;;;;;2.03;1.83;;;10.60;99.60;;;;;;5064950;28;20195;-87
2023/01/06 08:33:26;;;;;;;1.73;1.60;;;10.60;99.50;;;;;;5054739;28;20287;-87
2023/01/06 08:35:58;;;;;;;2.10;1.73;;;10.50;99.90;;;;;;5061485;28;20191;-87
2023/01/06 08:38:24;;;;;;;1.90;1.80;;;10.50;99.90;;;;;;5051248;28;20216;-86
2023/01/06 08:40:51;;;;;;;3.87;1.67;;;10.70;99.90;;;;;;5067822;28;20190;-87
2023/01/06 08:43:17;;;;;;;1.70;1.60;;;10.80;99.40;;;;;;5072092;28;20738;-86
2023/01/06 08:45:43;;;;;;;2.63;1.70;;;10.80;98.60;;;;;;5079203;28;20186;-87
2023/01/06 08:48:09;;;;;;;3.70;1.90;;;10.80;99.30;;;;;;5067883;28;20239;-88
2023/01/06 08:50:37;;;;;;;1.67;1.57;;;10.80;99.50;;;;;;5067668;28;20240;-88
2023/01/06 08:53:03;;;;;;;1.60;1.50;;;10.80;98.20;;;;;;5055425;28;20192;-88
2023/01/06 08:55:28;;;;;;;3.50;1.33;;;10.90;97.90;;;;;;5063530;28;20195;-88
2023/01/06 08:57:54;;;;;;;1.33;1.33;;;10.90;97.80;;;;;;5061813;28;20220;-87
2023/01/06 09:00:20;;;;;;;1.20;1.20;;;11.00;96.20;;;;;;5061182;28;20238;-87
2023/01/06 09:02:46;;;;;;;1.40;1.37;;;10.90;96.70;;;;;;5072797;28;20823;-86
2023/01/06 09:05:12;;;;;;;1.30;1.20;;;11.00;95.60;;;;;;5068550;28;20184;-86
2023/01/06 09:07:38;;;;;;;1.47;1.47;;;11.00;93.90;;;;;;5059582;28;21186;-86
2023/01/06 09:10:04;;;;;;;1.20;1.20;;;11.10;94.50;;;;;;5072924;28;20309;-86
2023/01/06 09:12:30;;;;;;;1.20;1.20;;;11.00;94.80;;;;;;5068859;28;20270;-87
2023/01/06 09:14:56;;;;;;;1.47;1.40;;;11.20;94.10;;;;;;5060774;28;20251;-86
2023/01/06 09:17:22;;;;;;;1.30;1.30;;;11.20;93.20;;;;;;5074878;28;20207;-87
2023/01/06 09:19:47;;;;;;;1.47;1.27;;;11.30;94.00;;;;;;5071273;28;20181;-86
2023/01/06 09:22:13;;;;;;;1.20;1.20;;;11.20;94.20;;;;;;5068755;28;20246;-87
2023/01/06 09:24:39;;;;;;;1.40;1.20;;;11.10;93.90;;;;;;5073173;28;20211;-87
2023/01/06 09:27:04;;;;;;;1.77;1.30;;;11.00;95.10;;;;;;5070029;28;20229;-86
2023/01/06 09:29:30;;;;;;;1.50;1.40;;;11.10;93.50;;;;;;5056438;28;20675;-86
2023/01/06 09:31:56;;;;;;;2.60;1.60;;;11.10;93.90;;;;;;5060475;28;20199;-86
2023/01/06 09:34:22;;;;;;;1.33;1.33;;;11.10;93.50;;;;;;5060557;28;20191;-87
2023/01/06 09:36:47;;;;;;;1.50;1.40;;;11.20;93.20;;;;;;5063371;28;20206;-86
2023/01/06 09:39:13;;;;;;;2.33;1.50;;;11.20;92.80;;;;;;5050032;28;20663;-85
2023/01/06 09:41:52;;;;;;;1.60;1.50;;;11.30;92.40;;;;;;5083583;28;20639;-87
2023/01/06 09:44:23;;;;;;;1.30;1.30;;;11.30;93.40;;;;;;5056980;28;20572;-86
2023/01/06 09:46:50;;;;;;;1.63;1.53;;;11.30;93.20;;;;;;5064306;28;20187;-87
2023/01/06 09:49:15;;;;;;;1.60;1.50;;;11.30;93.20;;;;;;5067265;28;20196;-88
2023/01/06 09:51:43;;;;;;;1.70;1.60;;;11.30;93.20;;;;;;5056069;28;20198;-87
2023/01/06 09:54:19;;;;;;;2.00;1.60;;;11.30;93.20;;;;;;5058378;28;20200;-87
2023/01/06 09:56:52;;;;;;;1.50;1.40;;;11.40;93.10;;;;;;5067229;28;20196;-87
2023/01/06 09:59:37;;;;;;;1.60;1.50;;;11.30;94.40;;;;;;5065051;28;20865;-86
2023/01/06 10:02:10;;;;;;;1.70;1.60;;;11.40;93.90;;;;;;5043125;28;20195;-87
2023/01/06 10:04:36;;;;;;;1.80;1.70;;;11.40;94.50;;;;;;5048845;28;20285;-88
2023/01/06 10:07:14;;;;;;;1.90;1.80;;;11.50;95.30;;;;;;5060597;28;20204;-85
2023/01/06 10:09:39;;;;;;;2.03;1.60;;;11.60;95.80;;;;;;5067141;28;20640;-87
2023/01/06 10:12:29;;;;;;;1.93;1.70;;;11.60;95.70;;;;;;5058497;28;20192;-87
2023/01/06 10:15:13;;;;;;;3.53;2.30;;;11.50;95.90;;;;;;5044906;28;20196;-87
2023/01/06 10:18:21;;;;;;;1.70;1.60;;;11.60;96.20;;;;;;5058989;28;20237;-87
2023/01/06 10:20:55;;;;;;;1.63;1.50;;;11.60;94.40;;;;;;5067718;28;20185;-87
2023/01/06 10:23:45;;;;;;;2.73;2.13;;;11.70;92.90;;;;;;5066297;28;20208;-87
2023/01/06 10:26:15;;;;;;;1.20;1.20;;;11.70;92.20;;;;;;5052591;28;20644;-87
2023/01/06 10:28:55;;;;;;;1.33;1.30;;;11.60;93.30;;;;;;5073481;28;20294;-86
2023/01/06 10:31:26;;;;;;;1.43;1.33;;;11.60;93.80;;;;;;5080996;28;20237;-88
2023/01/06 10:33:55;;;;;;;1.30;1.20;;;11.60;93.20;;;;;;5066745;28;20263;-87
2023/01/06 10:36:39;;;;;;;1.30;1.30;;;11.40;94.20;;;;;;5068255;28;20199;-87
2023/01/06 10:39:08;;;;;;;2.50;2.30;;;11.50;94.30;;;;;;5065127;28;20241;-87
2023/01/06 10:41:37;;;;;;;1.90;1.70;;;11.60;93.80;;;;;;5048647;28;20363;-88
2023/01/06 10:44:03;;;;;;;1.63;1.53;;;11.70;95.00;;;;;;5058966;28;20208;-87
2023/01/06 10:46:34;;;;;;;1.67;1.57;;;11.90;94.30;;;;;;5060902;28;20200;-87
2023/01/06 10:49:01;;;;;;;1.60;1.50;;;11.90;95.30;;;;;;5066374;28;20246;-87
2023/01/06 10:51:35;;;;;;;1.63;1.53;;;11.90;95.20;;;;;;5051441;28;20576;-87
2023/01/06 10:54:11;;;;;;;4.13;1.70;;;12.10;93.10;;;;;;5054693;28;20259;-87
2023/01/06 10:56:38;;;;;;;1.60;1.50;;;12.10;94.20;;;;;;5040272;28;20671;-87
2023/01/06 10:59:09;;;;;;;1.60;1.50;;;12.00;94.70;;;;;;5062632;28;20427;-87
2023/01/06 11:01:45;;;;;;;1.63;1.57;;;12.00;95.90;;;;;;5052102;28;20287;-87
2023/01/06 11:04:12;;;;;;;2.13;1.83;;;12.00;95.30;;;;;;5056804;28;20727;-87
2023/01/06 11:06:43;;;;;;;1.70;1.60;;;11.90;95.80;;;;;;5059573;28;20193;-87
2023/01/06 11:09:24;;;;;;;1.70;1.60;;;12.10;96.50;;;;;;5042658;28;20186;-88
2023/01/06 11:11:52;;;;;;;1.77;1.67;;;12.10;96.30;;;;;;5060704;28;20216;-87
2023/01/06 11:14:21;;;;;;;1.73;1.63;;;12.30;94.60;;;;;;5062102;28;20940;-87
2023/01/06 11:17:06;;;;;;;2.43;1.60;;;12.20;95.30;;;;;;5053377;28;20285;-87
2023/01/06 11:19:36;;;;;;;1.83;1.73;;;12.20;95.60;;;;;;5029612;28;20198;-87
2023/01/06 11:22:02;;;;;;;1.70;1.60;;;12.30;95.90;;;;;;5040550;28;20752;-87
2023/01/06 11:24:29;;;;;;;1.60;1.50;;;12.10;95.20;;;;;;5030605;28;20825;-87
2023/01/06 11:27:17;;;;;;;1.70;1.60;;;12.10;94.80;;;;;;5046172;28;20192;-86
2023/01/06 11:29:42;;;;;;;2.87;1.50;;;12.00;95.70;;;;;;5048285;28;20220;-86
2023/01/06 11:32:14;;;;;;;2.67;1.67;;;12.00;95.30;;;;;;5024366;28;20228;-87
2023/01/06 11:34:51;;;;;;;1.70;1.60;;;12.00;96.50;;;;;;5025431;28;20217;-87
2023/01/06 11:37:55;;;;;;;1.40;1.40;;;11.90;97.70;;;;;;5044440;28;20730;-87
2023/01/06 11:40:31;;;;;;;1.73;1.63;;;12.00;97.20;;;;;;5007878;28;20231;-87
2023/01/06 11:43:05;;;;;;;1.53;1.43;;;12.10;96.30;;;;;;5049016;28;20915;-84
2023/01/06 11:45:53;;;;;;;1.40;1.30;;;12.10;96.70;;;;;;5044918;28;20204;-86
2023/01/06 11:48:43;;;;;;;1.70;1.50;;;12.20;96.80;;;;;;5066746;28;20188;-87
2023/01/06 11:51:09;;;;;;;1.83;1.50;;;12.50;94.40;;;;;;5047968;28;20198;-88
2023/01/06 11:53:37;;;;;;;1.50;1.40;;;12.60;93.20;;;;;;5040463;28;20218;-87
2023/01/06 11:56:13;;;;;;;2.03;1.37;;;12.70;91.20;;;;;;5041610;28;20209;-87
2023/01/06 11:58:53;;;;;;;1.80;1.40;;;12.60;91.70;;;;;;5049419;28;20214;-87
2023/01/06 12:01:34;;;;;;;1.60;1.50;;;12.50;91.30;;;;;;5048647;28;20198;-87
2023/01/06 12:04:18;;;;;;;1.60;1.50;;;12.70;91.20;;;;;;5045080;28;20282;-85
2023/01/06 12:06:50;;;;;;;1.70;1.50;;;12.40;93.10;;;;;;5040375;28;20269;-85
2023/01/06 12:09:27;;;;;;;1.30;1.30;;;12.20;93.80;;;;;;5051468;28;20208;-87
2023/01/06 12:11:59;;;;;;;2.00;1.50;;;12.40;92.40;;;;;;5065129;28;20187;-87
2023/01/06 12:14:34;;;;;;;1.50;1.40;;;12.20;92.70;;;;;;5056796;28;20188;-85
2023/01/06 12:17:21;;;;;;;1.10;1.10;;;12.10;94.10;;;;;;5039991;28;20311;-87
2023/01/06 12:19:56;;;;;;;2.13;1.40;;;11.80;95.60;;;;;;5043705;28;20253;-86
2023/01/06 12:22:29;;;;;;;1.30;1.23;;;11.80;95.30;;;;;;5045688;28;20273;-88
2023/01/06 12:24:58;;;;;;;1.30;1.30;;;11.90;93.60;;;;;;5057642;28;20604;-88
2023/01/06 12:27:40;;;;;;;1.50;1.40;;;12.00;93.30;;;;;;5039382;28;20226;-87
2023/01/06 12:30:31;;;;;;;1.27;1.27;;;12.00;94.00;;;;;;5053705;28;20319;-87
2023/01/06 12:33:07;;;;;;;1.27;1.20;;;12.10;93.70;;;;;;5015563;28;20290;-88
2023/01/06 12:35:36;;;;;;;1.97;1.50;;;12.10;94.10;;;;;;5031316;28;20252;-86
2023/01/06 12:38:31;;;;;;;1.30;1.30;;;12.20;93.80;;;;;;5045475;28;20230;-87
2023/01/06 12:41:42;;;;;;;1.60;1.50;;;12.20;94.10;;;;;;4995174;28;20203;-87
2023/01/06 12:44:36;;;;;;;1.30;1.30;;;11.90;95.80;;;;;;5028844;28;20237;-87
2023/01/06 12:47:27;;;;;;;1.37;1.27;;;11.90;95.50;;;;;;5041127;28;20222;-87
2023/01/06 12:50:04;;;;;;;1.60;1.50;;;11.80;95.50;;;;;;5040549;28;20308;-88
2023/01/06 12:52:42;;;;;;;1.43;1.40;;;11.70;96.30;;;;;;5038331;28;20190;-89
2023/01/06 12:55:15;;;;;;;1.37;1.27;;;11.70;96.20;;;;;;5042590;28;20193;-86
2023/01/06 12:58:03;;;;;;;1.60;1.50;;;11.60;95.10;;;;;;5024865;28;21000;-88
2023/01/06 13:01:07;;;;;;;1.70;1.60;;;11.60;93.90;;;;;;5045626;28;20197;-88
2023/01/06 13:03:54;;;;;;;1.60;1.50;;;11.60;94.70;;;;;;4979627;28;20215;-88
2023/01/06 13:06:33;;;;;;;1.87;1.60;;;11.60;95.10;;;;;;4950147;28;21132;-87
2023/01/06 13:09:41;;;;;;;1.70;1.60;;;11.60;94.10;;;;;;4971525;28;20272;-88
2023/01/06 13:16:11;;;;;;;1.67;1.57;;;11.60;94.60;;;;;;5001809;28;20191;-88
2023/01/06 13:19:05;;;;;;;2.30;1.63;;;11.50;96.40;;;;;;4995749;28;20318;-87
2023/01/06 13:29:49;;;;;;;2.30;1.87;;;11.40;97.40;;;;;;5051572;28;20300;-90